Time;durP1;ratioP1;P1;durP2;ratioP2;P2;SDS_P1;SDS_P2;PMS_P1;PMS_P2;Temp;Humidity;BMP_temperature;BMP_pressure;BME280_temperature;BME280_humidity;BME280_pressure;Samples;Min_cycle;Max_cycle;Signal;HPM_P1;HPM_P2
2023/05/13 00:00:49;;;;;;;1.00;0.90;;;;;;;9.49;100.00;97834.81;1710723;75;714696;-75
2023/05/13 00:03:19;;;;;;;1.30;0.80;;;;;;;9.45;100.00;97828.75;1699004;75;960157;-75
2023/05/13 00:05:50;;;;;;;1.90;1.10;;;;;;;9.40;100.00;97835.59;1710322;75;739882;-74
2023/05/13 00:08:20;;;;;;;1.20;1.00;;;;;;;9.43;100.00;97833.91;1664611;75;3904799;-74
2023/05/13 00:10:53;;;;;;;1.20;1.10;;;;;;;9.34;100.00;97832.00;1688682;75;2690377;-73
2023/05/13 00:13:23;;;;;;;1.10;1.00;;;;;;;9.34;100.00;97838.22;1702367;75;787969;-75
2023/05/13 00:15:53;;;;;;;0.80;0.80;;;;;;;9.45;100.00;97832.22;1711878;75;668455;-74
2023/05/13 00:18:23;;;;;;;1.20;1.10;;;;;;;9.41;100.00;97833.66;1701219;75;828509;-74
2023/05/13 00:20:55;;;;;;;1.30;0.90;;;;;;;9.50;100.00;97834.34;1709064;75;867744;-74
2023/05/13 00:23:25;;;;;;;0.80;0.80;;;;;;;9.62;100.00;97837.31;1702639;75;749739;-73
2023/05/13 00:25:58;;;;;;;0.80;0.80;;;;;;;9.48;100.00;97834.06;1707987;75;914136;-74
2023/05/13 00:28:28;;;;;;;0.70;0.70;;;;;;;9.46;100.00;97830.28;1698785;75;942176;-73
2023/05/13 00:30:58;;;;;;;0.65;0.65;;;;;;;9.49;100.00;97829.34;1710578;75;679097;-75
2023/05/13 00:33:28;;;;;;;1.00;0.90;;;;;;;9.43;100.00;97831.19;1701886;75;748889;-74
2023/05/13 00:35:58;;;;;;;0.90;0.90;;;;;;;9.61;100.00;97831.09;1710953;75;711192;-75
2023/05/13 00:38:28;;;;;;;0.70;0.70;;;;;;;9.68;100.00;97830.75;1702457;75;724380;-75
2023/05/13 00:41:01;;;;;;;0.60;0.60;;;;;;;9.69;100.00;97826.81;1710773;75;669921;-73
2023/05/13 00:43:31;;;;;;;0.90;0.90;;;;;;;9.50;100.00;97833.56;1698697;75;958115;-74
2023/05/13 00:46:03;;;;;;;0.80;0.80;;;;;;;9.32;100.00;97829.72;1710811;75;671745;-74
2023/05/13 00:48:33;;;;;;;0.80;0.80;;;;;;;9.38;100.00;97833.34;1702050;75;744707;-76
2023/05/13 00:51:03;;;;;;;0.95;0.85;;;;;;;9.42;100.00;97835.91;1708707;75;902888;-75
2023/05/13 00:53:34;;;;;;;1.20;1.00;;;;;;;9.27;100.00;97844.03;1701919;75;756833;-75
2023/05/13 00:56:08;;;;;;;0.60;0.60;;;;;;;9.24;100.00;97836.00;1711324;75;671083;-74
2023/05/13 00:58:38;;;;;;;0.85;0.85;;;;;;;9.39;100.00;97832.13;1702105;75;741413;-74
2023/05/13 01:01:19;;;;;;;0.70;0.70;;;;;;;9.35;100.00;97844.44;1708821;75;847413;-77
2023/05/13 01:04:02;;;;;;;1.40;0.90;;;;;;;9.25;100.00;97848.44;1700146;75;863402;-73
2023/05/13 01:06:43;;;;;;;0.75;0.75;;;;;;;9.23;100.00;97845.41;1700818;75;901385;-77
2023/05/13 01:09:23;;;;;;;0.60;0.60;;;;;;;9.50;100.00;97849.97;1711336;75;674457;-76
2023/05/13 01:11:58;;;;;;;0.80;0.75;;;;;;;9.24;100.00;97844.94;1701682;75;745330;-75
2023/05/13 01:14:39;;;;;;;0.85;0.85;;;;;;;9.15;100.00;97851.19;1708358;75;889334;-73
2023/05/13 01:17:17;;;;;;;1.40;1.10;;;;;;;9.03;100.00;97857.63;1708254;75;962310;-75
2023/05/13 01:19:52;;;;;;;1.10;1.00;;;;;;;9.14;100.00;97852.44;1704355;75;672034;-74
2023/05/13 01:22:26;;;;;;;1.20;1.10;;;;;;;9.16;100.00;97850.00;1708695;75;897011;-75
2023/05/13 01:24:56;;;;;;;1.10;0.85;;;;;;;9.12;100.00;97862.28;1702749;75;744229;-75
2023/05/13 01:27:27;;;;;;;1.05;0.95;;;;;;;9.18;100.00;97857.72;1711120;75;735349;-75
2023/05/13 01:29:58;;;;;;;1.30;0.80;;;;;;;9.16;100.00;97857.41;1702707;75;751063;-74
2023/05/13 01:32:29;;;;;;;0.80;0.80;;;;;;;9.26;100.00;97864.38;1711283;75;688933;-74
2023/05/13 01:35:00;;;;;;;0.70;0.70;;;;;;;9.41;100.00;97855.50;1702877;75;745690;-74
2023/05/13 01:37:33;;;;;;;2.45;0.75;;;;;;;9.33;100.00;97858.56;1707860;75;969337;-75
2023/05/13 01:40:04;;;;;;;0.60;0.60;;;;;;;9.37;100.00;97855.66;1698693;75;931352;-73
2023/05/13 01:42:36;;;;;;;0.80;0.80;;;;;;;9.37;100.00;97856.41;1710939;75;674095;-76
2023/05/13 01:45:07;;;;;;;0.60;0.60;;;;;;;9.30;100.00;97858.72;1701594;75;748047;-75
2023/05/13 01:47:37;;;;;;;0.70;0.70;;;;;;;9.37;100.00;97859.16;1711068;75;672787;-75
2023/05/13 01:50:08;;;;;;;0.70;0.70;;;;;;;9.17;100.00;97858.94;1701984;75;749949;-75
2023/05/13 01:52:41;;;;;;;1.40;1.00;;;;;;;9.21;100.00;97854.03;1710993;75;669613;-74
2023/05/13 01:55:12;;;;;;;0.60;0.60;;;;;;;9.43;100.00;97848.34;1698707;75;972924;-75
2023/05/13 01:57:42;;;;;;;0.60;0.60;;;;;;;9.27;100.00;97854.19;1711051;75;702903;-74
2023/05/13 02:00:14;;;;;;;0.50;0.50;;;;;;;9.36;100.00;97857.63;1701275;75;744673;-77
2023/05/13 02:02:45;;;;;;;0.50;0.50;;;;;;;9.30;100.00;97856.00;1710687;75;679606;-75
2023/05/13 02:05:15;;;;;;;0.60;0.60;;;;;;;9.24;100.00;97855.88;1689783;75;1691978;-73
2023/05/13 02:07:48;;;;;;;0.55;0.55;;;;;;;9.49;100.00;97859.41;1711380;75;675884;-77
2023/05/13 02:10:19;;;;;;;0.50;0.50;;;;;;;9.33;100.00;97866.78;1701635;75;749097;-76
2023/05/13 02:12:49;;;;;;;0.60;0.50;;;;;;;9.45;100.00;97861.53;1710743;75;680539;-77
2023/05/13 02:15:20;;;;;;;0.25;0.25;;;;;;;9.58;100.00;97864.81;1701989;75;755545;-74
2023/05/13 02:17:53;;;;;;;0.70;0.40;;;;;;;9.65;100.00;97861.00;1711570;75;682204;-73
2023/05/13 02:20:23;;;;;;;0.35;0.35;;;;;;;9.68;100.00;97858.09;1702192;75;738040;-77
2023/05/13 02:22:56;;;;;;;0.40;0.40;;;;;;;9.76;100.00;97861.22;1711192;75;675961;-77
2023/05/13 02:25:26;;;;;;;0.20;0.20;;;;;;;9.81;100.00;97868.78;1703087;75;724099;-76
2023/05/13 02:27:57;;;;;;;0.30;0.30;;;;;;;9.69;100.00;97865.09;1707963;75;984286;-75
2023/05/13 02:30:28;;;;;;;0.30;0.30;;;;;;;9.70;100.00;97863.84;1701878;75;756576;-74
2023/05/13 02:33:00;;;;;;;0.30;0.30;;;;;;;9.76;100.00;97861.97;1709846;75;791171;-75
2023/05/13 02:35:30;;;;;;;0.30;0.30;;;;;;;9.84;100.00;97859.66;1700103;75;864305;-75
2023/05/13 02:38:04;;;;;;;0.30;0.30;;;;;;;9.81;100.00;97866.81;1711218;75;730001;-73
2023/05/13 02:40:34;;;;;;;0.30;0.30;;;;;;;9.70;100.00;97860.38;1701231;75;800248;-77
2023/05/13 02:43:04;;;;;;;0.30;0.30;;;;;;;9.78;100.00;97861.53;1709731;75;836001;-75
2023/05/13 02:45:35;;;;;;;0.35;0.35;;;;;;;9.79;100.00;97865.78;1703009;75;733506;-76
2023/05/13 02:48:05;;;;;;;0.30;0.30;;;;;;;9.88;100.00;97873.16;1711106;75;671105;-74
2023/05/13 02:50:36;;;;;;;0.50;0.40;;;;;;;9.86;100.00;97864.66;1702774;75;749194;-76
2023/05/13 02:53:08;;;;;;;0.25;0.25;;;;;;;9.86;100.00;97864.66;1711271;75;672495;-75
2023/05/13 02:55:39;;;;;;;0.40;0.40;;;;;;;9.85;100.00;97885.03;1702952;75;744834;-76
2023/05/13 02:58:11;;;;;;;1.10;0.30;;;;;;;9.54;100.00;97869.69;1711382;75;682628;-72
2023/05/13 03:00:41;;;;;;;0.50;0.50;;;;;;;9.49;100.00;97873.06;1701648;75;773041;-77
2023/05/13 03:03:12;;;;;;;0.60;0.50;;;;;;;9.59;100.00;97874.53;1709183;75;878362;-75
2023/05/13 03:05:42;;;;;;;0.30;0.30;;;;;;;9.60;100.00;97874.06;1699411;75;933088;-75
2023/05/13 03:08:15;;;;;;;0.50;0.50;;;;;;;9.58;100.00;97873.78;1708212;75;968516;-73
2023/05/13 03:10:45;;;;;;;0.40;0.40;;;;;;;9.76;100.00;97874.91;1700040;75;933556;-74
2023/05/13 03:13:15;;;;;;;0.50;0.50;;;;;;;9.63;100.00;97880.59;1708203;75;973962;-74
2023/05/13 03:15:45;;;;;;;0.50;0.40;;;;;;;9.52;100.00;97880.34;1688873;75;1830697;-76
2023/05/13 03:18:15;;;;;;;0.60;0.60;;;;;;;9.43;100.00;97872.16;1711518;75;675569;-75
2023/05/13 03:20:45;;;;;;;0.60;0.60;;;;;;;9.37;100.00;97875.53;1703107;75;734118;-77
2023/05/13 03:23:18;;;;;;;0.55;0.55;;;;;;;9.37;100.00;97881.00;1709464;75;885467;-75
2023/05/13 03:25:48;;;;;;;0.70;0.70;;;;;;;9.52;100.00;97881.09;1688597;75;1904230;-76
2023/05/13 03:28:18;;;;;;;0.60;0.60;;;;;;;9.42;100.00;97885.09;1711788;75;684874;-74
2023/05/13 03:30:49;;;;;;;0.70;0.70;;;;;;;9.37;100.00;97880.25;1699463;75;948536;-76
2023/05/13 03:33:19;;;;;;;0.60;0.60;;;;;;;9.54;100.00;97884.13;1710902;75;689059;-74
2023/05/13 03:35:49;;;;;;;0.50;0.50;;;;;;;9.65;100.00;97880.13;1700135;75;913993;-76
2023/05/13 03:38:22;;;;;;;0.60;0.60;;;;;;;9.56;100.00;97884.41;1697005;75;1875915;-73
2023/05/13 03:40:52;;;;;;;0.50;0.50;;;;;;;9.55;100.00;97885.66;1702619;75;744532;-79
2023/05/13 03:43:22;;;;;;;1.35;0.70;;;;;;;9.44;100.00;97884.63;1711553;75;670339;-76
2023/05/13 03:45:53;;;;;;;0.70;0.70;;;;;;;9.49;100.00;97887.47;1702532;75;744085;-75
2023/05/13 03:48:23;;;;;;;1.00;0.90;;;;;;;9.51;100.00;97892.50;1707631;75;960589;-75
2023/05/13 03:50:53;;;;;;;0.90;0.80;;;;;;;9.49;100.00;97903.13;1702028;75;761033;-75
2023/05/13 03:53:26;;;;;;;0.50;0.50;;;;;;;9.71;100.00;97894.66;1711928;75;672580;-74
2023/05/13 03:55:56;;;;;;;0.85;0.65;;;;;;;9.52;100.00;97897.47;1700718;75;834788;-76
2023/05/13 03:58:26;;;;;;;2.15;0.70;;;;;;;9.63;100.00;97893.50;1697724;75;1807238;-75
2023/05/13 04:00:56;;;;;;;0.55;0.55;;;;;;;9.56;100.00;97900.06;1700840;75;818062;-76
2023/05/13 04:03:26;;;;;;;1.30;0.90;;;;;;;9.53;100.00;97890.81;1709087;75;856090;-74
2023/05/13 04:05:57;;;;;;;0.70;0.70;;;;;;;9.50;100.00;97901.91;1701953;75;765331;-77
2023/05/13 04:08:30;;;;;;;0.60;0.60;;;;;;;9.65;100.00;97885.59;1710769;75;673423;-77
2023/05/13 04:11:00;;;;;;;0.60;0.60;;;;;;;9.68;100.00;97898.34;1702463;75;749941;-75
2023/05/13 04:13:31;;;;;;;0.60;0.60;;;;;;;9.83;100.00;97896.41;1697672;75;1827661;-75
2023/05/13 04:16:01;;;;;;;0.40;0.40;;;;;;;9.85;100.00;97898.69;1701526;75;744488;-75
2023/05/13 04:18:33;;;;;;;0.35;0.35;;;;;;;9.90;100.00;97898.81;1707995;75;906534;-77
2023/05/13 04:21:08;;;;;;;0.50;0.50;;;;;;;9.94;100.00;97899.41;1701904;75;752202;-76
2023/05/13 04:23:41;;;;;;;0.60;0.60;;;;;;;9.96;100.00;97902.44;1708627;75;925568;-75
2023/05/13 04:26:11;;;;;;;0.40;0.40;;;;;;;9.96;100.00;97898.94;1701944;75;741560;-75
2023/05/13 04:28:41;;;;;;;0.50;0.50;;;;;;;9.99;100.00;97903.47;1708118;75;936413;-75
2023/05/13 04:31:11;;;;;;;0.50;0.50;;;;;;;10.04;100.00;97905.56;1665712;75;3892322;-77
2023/05/13 04:33:41;;;;;;;0.50;0.50;;;;;;;10.01;100.00;97904.53;1712477;75;682821;-73
2023/05/13 04:36:12;;;;;;;0.70;0.70;;;;;;;10.02;100.00;97903.28;1702757;75;742166;-77
2023/05/13 04:38:45;;;;;;;0.60;0.60;;;;;;;10.03;100.00;97907.56;1710755;75;758764;-73
2023/05/13 04:41:15;;;;;;;0.75;0.75;;;;;;;10.05;100.00;97907.06;1701736;75;762151;-75
2023/05/13 04:43:45;;;;;;;0.85;0.80;;;;;;;10.02;100.00;97908.00;1710874;75;674552;-75
2023/05/13 04:46:15;;;;;;;1.30;1.20;;;;;;;10.00;100.00;97915.91;1701842;75;744215;-76
2023/05/13 04:48:47;;;;;;;1.15;1.05;;;;;;;10.05;100.00;97909.06;1710693;75;669812;-75
2023/05/13 04:51:18;;;;;;;1.30;1.20;;;;;;;10.09;100.00;97912.38;1700572;75;821635;-75
2023/05/13 04:53:51;;;;;;;1.40;1.30;;;;;;;10.08;100.00;97919.06;1711390;75;680865;-76
2023/05/13 04:56:21;;;;;;;2.10;1.90;;;;;;;10.07;100.00;97917.56;1699228;75;948399;-74
2023/05/13 04:58:51;;;;;;;2.45;2.20;;;;;;;10.01;100.00;97912.72;1707585;75;992101;-74
2023/05/13 05:01:21;;;;;;;2.20;2.00;;;;;;;10.09;100.00;97920.59;1701504;75;741619;-76
2023/05/13 05:03:51;;;;;;;1.75;1.65;;;;;;;10.10;100.00;97916.63;1710967;75;677629;-75
2023/05/13 05:06:22;;;;;;;2.15;1.95;;;;;;;10.11;100.00;97918.16;1700286;75;867136;-77
2023/05/13 05:08:54;;;;;;;2.05;1.85;;;;;;;10.11;100.00;97929.09;1686580;75;2751392;-75
2023/05/13 05:11:24;;;;;;;2.30;2.10;;;;;;;10.15;100.00;97932.38;1702619;75;722719;-74
2023/05/13 05:13:55;;;;;;;1.85;1.75;;;;;;;10.12;100.00;97928.59;1710042;75;792108;-76
2023/05/13 05:16:26;;;;;;;1.90;1.80;;;;;;;10.12;100.00;97928.59;1702048;75;752791;-75
2023/05/13 05:18:56;;;;;;;3.20;2.40;;;;;;;10.11;100.00;97934.56;1711490;75;675518;-74
2023/05/13 05:21:26;;;;;;;2.45;2.25;;;;;;;10.11;100.00;97931.81;1702584;75;743429;-76
2023/05/13 05:24:00;;;;;;;3.00;2.60;;;;;;;10.10;100.00;97930.28;1708064;75;887967;-75
2023/05/13 05:26:30;;;;;;;5.30;4.80;;;;;;;9.89;100.00;97935.59;1699069;75;970164;-74
2023/05/13 05:29:01;;;;;;;5.40;4.90;;;;;;;9.98;100.00;97937.50;1711490;75;675612;-76
2023/05/13 05:31:31;;;;;;;5.55;4.85;;;;;;;9.95;100.00;97947.41;1700529;75;826549;-76
2023/05/13 05:34:02;;;;;;;5.50;4.90;;;;;;;9.95;100.00;97939.19;1708541;75;869710;-74
2023/05/13 05:36:32;;;;;;;5.30;4.80;;;;;;;9.95;100.00;97944.66;1701964;75;737551;-74
2023/05/13 05:39:05;;;;;;;5.90;5.15;;;;;;;10.01;100.00;97937.34;1710786;75;675977;-76
2023/05/13 05:41:35;;;;;;;6.80;5.70;;;;;;;9.98;100.00;97940.25;1699408;75;935275;-74
2023/05/13 05:44:06;;;;;;;6.40;5.80;;;;;;;9.94;100.00;97950.63;1696548;75;1893035;-75
2023/05/13 05:46:36;;;;;;;7.60;6.80;;;;;;;9.95;100.00;97950.13;1698745;75;988236;-78
2023/05/13 05:49:07;;;;;;;7.50;6.80;;;;;;;9.95;100.00;97949.38;1711808;75;690051;-76
2023/05/13 05:51:37;;;;;;;10.30;7.00;;;;;;;9.89;100.00;97954.72;1688090;75;1939885;-74
2023/05/13 05:54:10;;;;;;;7.45;6.65;;;;;;;9.93;100.00;97957.28;1708699;75;888704;-76
2023/05/13 05:56:40;;;;;;;6.70;6.10;;;;;;;9.94;100.00;97951.38;1699481;75;959294;-76
2023/05/13 05:59:10;;;;;;;5.65;5.05;;;;;;;10.04;100.00;97957.53;1711539;75;668489;-77
2023/05/13 06:01:40;;;;;;;5.45;4.90;;;;;;;10.03;100.00;97959.53;1688989;75;1813080;-78
2023/05/13 06:04:10;;;;;;;6.15;4.35;;;;;;;10.07;100.00;97966.78;1711864;75;672383;-77
2023/05/13 06:06:41;;;;;;;4.40;4.00;;;;;;;10.12;100.00;97968.88;1702839;75;744567;-75
2023/05/13 06:09:14;;;;;;;3.90;3.50;;;;;;;10.18;100.00;97969.78;1711686;75;672014;-74
2023/05/13 06:11:44;;;;;;;3.55;2.90;;;;;;;10.26;100.00;97972.91;1702386;75;771329;-75
2023/05/13 06:14:14;;;;;;;3.75;3.35;;;;;;;10.23;100.00;97964.41;1711259;75;719863;-75
2023/05/13 06:16:44;;;;;;;4.20;3.80;;;;;;;10.13;100.00;97967.69;1699594;75;958365;-74
2023/05/13 06:19:14;;;;;;;5.50;3.60;;;;;;;10.22;100.00;97979.31;1711284;75;670164;-77
2023/05/13 06:21:44;;;;;;;4.55;4.05;;;;;;;10.19;100.00;97979.47;1687524;75;1877540;-74
2023/05/13 06:24:17;;;;;;;6.25;5.05;;;;;;;10.13;100.00;97971.16;1710646;75;686602;-77
2023/05/13 06:26:48;;;;;;;4.40;3.80;;;;;;;10.24;100.00;97974.13;1686150;75;2018447;-79
2023/05/13 06:29:18;;;;;;;4.30;3.90;;;;;;;10.24;100.00;97981.59;1698491;75;1709259;-75
2023/05/13 06:31:49;;;;;;;5.80;5.15;;;;;;;10.00;100.00;97981.56;1701554;75;752282;-75
2023/05/13 06:34:19;;;;;;;5.00;4.40;;;;;;;10.19;100.00;97977.50;1710690;75;683218;-75
2023/05/13 06:36:49;;;;;;;4.25;3.75;;;;;;;10.36;100.00;97985.34;1702201;75;746587;-77
2023/05/13 06:39:22;;;;;;;4.45;3.75;;;;;;;10.35;100.00;97992.81;1707918;75;957578;-76
2023/05/13 06:41:52;;;;;;;5.00;4.05;;;;;;;10.24;100.00;97987.81;1700104;75;871741;-76
2023/05/13 06:44:22;;;;;;;3.70;3.30;;;;;;;10.35;100.00;97992.06;1708723;75;914181;-76
2023/05/13 06:46:52;;;;;;;3.30;2.90;;;;;;;10.36;100.00;97997.03;1701606;75;756388;-77
2023/05/13 06:49:23;;;;;;;3.25;2.95;;;;;;;10.43;100.00;97993.19;1711668;75;673020;-77
2023/05/13 06:51:53;;;;;;;4.50;4.10;;;;;;;10.26;100.00;97987.34;1702217;75;745484;-77
2023/05/13 06:54:26;;;;;;;3.95;3.40;;;;;;;10.36;100.00;97999.03;1708683;75;926307;-74
2023/05/13 06:56:58;;;;;;;3.55;3.15;;;;;;;10.33;100.00;97995.25;1690422;75;1681510;-75
2023/05/13 06:59:29;;;;;;;3.30;2.60;;;;;;;10.29;100.00;97997.38;1710630;75;678862;-75
2023/05/13 07:01:59;;;;;;;3.00;2.70;;;;;;;10.36;100.00;98005.25;1702384;75;742497;-78
2023/05/13 07:04:30;;;;;;;2.45;2.25;;;;;;;10.48;100.00;98010.97;1710553;75;683037;-78
2023/05/13 07:07:00;;;;;;;2.70;2.35;;;;;;;10.30;100.00;98018.06;1701955;75;754576;-74
2023/05/13 07:09:33;;;;;;;3.25;2.70;;;;;;;10.26;100.00;98020.19;1711501;75;674790;-75
2023/05/13 07:12:03;;;;;;;3.40;2.70;;;;;;;10.29;100.00;97997.38;1703138;75;745935;-76
2023/05/13 07:14:34;;;;;;;2.30;1.80;;;;;;;10.47;100.00;98007.47;1709996;75;801351;-76
2023/05/13 07:17:04;;;;;;;5.60;2.05;;;;;;;10.51;100.00;98010.81;1701987;75;749317;-75
2023/05/13 07:19:34;;;;;;;2.90;2.40;;;;;;;10.59;100.00;98006.47;1711912;75;673584;-75
2023/05/13 07:22:04;;;;;;;3.30;3.00;;;;;;;10.72;100.00;98005.47;1700963;75;832984;-73
2023/05/13 07:24:37;;;;;;;3.50;2.90;;;;;;;10.73;100.00;98009.75;1708966;75;870903;-75
2023/05/13 07:27:08;;;;;;;3.70;3.10;;;;;;;10.83;100.00;98017.41;1698980;75;972261;-76
2023/05/13 07:29:38;;;;;;;5.20;4.50;;;;;;;10.83;100.00;98016.66;1710835;75;672444;-73
2023/05/13 07:32:09;;;;;;;4.00;3.10;;;;;;;10.81;100.00;98019.09;1701804;75;792817;-78
2023/05/13 07:34:40;;;;;;;3.60;2.90;;;;;;;10.61;100.00;98023.19;1698688;75;1738940;-75
2023/05/13 07:37:10;;;;;;;3.00;2.25;;;;;;;10.77;100.00;98018.53;1702528;75;749333;-76
2023/05/13 07:39:43;;;;;;;2.60;2.20;;;;;;;10.79;100.00;98019.56;1711521;75;681790;-77
2023/05/13 07:42:14;;;;;;;2.15;1.85;;;;;;;10.67;100.00;98023.31;1700873;75;851326;-76
2023/05/13 07:44:44;;;;;;;2.10;1.80;;;;;;;10.77;100.00;98021.25;1709222;75;893343;-77
2023/05/13 07:47:14;;;;;;;2.20;2.00;;;;;;;10.84;100.00;98018.16;1702385;75;754367;-77
2023/05/13 07:49:45;;;;;;;2.10;1.90;;;;;;;10.86;100.00;98018.44;1711646;75;674178;-75
2023/05/13 07:52:15;;;;;;;1.50;1.40;;;;;;;10.95;100.00;98007.44;1698412;75;973269;-75
2023/05/13 07:54:48;;;;;;;2.50;2.30;;;;;;;10.98;100.00;98022.91;1710874;75;679023;-77
2023/05/13 07:57:18;;;;;;;1.40;1.20;;;;;;;11.08;100.00;98023.59;1699723;75;895649;-75
2023/05/13 07:59:49;;;;;;;1.70;1.60;;;;;;;10.98;100.00;98022.91;1708564;75;935648;-75
2023/05/13 08:02:19;;;;;;;1.60;1.50;;;;;;;11.12;100.00;98026.16;1701145;75;800249;-76
2023/05/13 08:04:49;;;;;;;1.45;1.30;;;;;;;11.08;100.00;98023.59;1698730;75;1763610;-75
2023/05/13 08:07:19;;;;;;;1.90;1.70;;;;;;;11.01;100.00;98021.22;1701798;75;752075;-75
2023/05/13 08:09:52;;;;;;;2.00;1.50;;;;;;;11.09;100.00;98023.13;1707655;75;986656;-76
2023/05/13 08:12:22;;;;;;;1.30;1.20;;;;;;;11.09;100.00;98023.13;1699449;75;946003;-75
2023/05/13 08:14:52;;;;;;;1.35;1.20;;;;;;;11.14;100.00;98020.97;1711591;75;686010;-77
2023/05/13 08:17:23;;;;;;;1.60;1.40;;;;;;;11.13;100.00;98022.19;1699373;75;905348;-74
2023/05/13 08:19:53;;;;;;;2.50;2.10;;;;;;;11.11;100.00;98036.34;1711215;75;674904;-76
2023/05/13 08:22:23;;;;;;;2.85;2.40;;;;;;;11.05;100.00;98019.06;1700544;75;842546;-74
2023/05/13 08:24:56;;;;;;;1.90;1.60;;;;;;;11.05;100.00;98028.03;1710723;75;674373;-77
2023/05/13 08:27:26;;;;;;;1.95;1.40;;;;;;;11.14;100.00;98024.47;1689410;75;1791317;-79
2023/05/13 08:29:56;;;;;;;1.45;1.35;;;;;;;11.13;100.00;98022.19;1712122;75;688803;-79
2023/05/13 08:32:26;;;;;;;1.40;1.30;;;;;;;11.16;100.00;98032.19;1700599;75;857706;-76
2023/05/13 08:34:56;;;;;;;1.45;1.20;;;;;;;11.15;100.00;98019.75;1708230;75;902267;-75
2023/05/13 08:37:27;;;;;;;1.05;0.95;;;;;;;11.23;100.00;98026.34;1701394;75;738041;-77
2023/05/13 08:40:00;;;;;;;1.25;1.15;;;;;;;11.31;100.00;98033.00;1709434;75;794761;-74
2023/05/13 08:42:34;;;;;;;0.85;0.80;;;;;;;11.35;100.00;98025.31;1699257;75;851499;-75
2023/05/13 08:45:07;;;;;;;1.25;1.10;;;;;;;11.36;100.00;98032.34;1708646;75;896692;-75
2023/05/13 08:47:46;;;;;;;1.10;1.00;;;;;;;11.48;100.00;98031.28;1702342;75;745060;-77
2023/05/13 08:50:17;;;;;;;0.80;0.80;;;;;;;11.62;100.00;98024.31;1705397;75;672155;-74
2023/05/13 08:52:47;;;;;;;1.00;0.90;;;;;;;11.66;100.00;98026.84;1709841;75;903440;-78
2023/05/13 08:55:21;;;;;;;1.20;0.90;;;;;;;11.55;100.00;98032.16;1676963;75;2961549;-76
2023/05/13 08:57:51;;;;;;;1.20;1.10;;;;;;;11.45;100.00;98032.25;1708946;75;847376;-76
2023/05/13 09:00:22;;;;;;;2.45;1.00;;;;;;;11.40;100.00;98040.34;1703121;75;672838;-78
2023/05/13 09:02:53;;;;;;;1.90;1.70;;;;;;;11.28;100.00;98033.91;1710219;75;777805;-75
2023/05/13 09:05:24;;;;;;;1.40;1.30;;;;;;;11.33;100.00;98037.97;1699496;75;999320;-76
2023/05/13 09:07:56;;;;;;;1.60;1.50;;;;;;;11.23;100.00;98040.84;1710774;75;675299;-74
2023/05/13 09:10:28;;;;;;;2.50;1.90;;;;;;;11.05;100.00;98038.25;1703578;75;675945;-75
2023/05/13 09:13:00;;;;;;;3.50;1.50;;;;;;;11.27;100.00;98035.16;1711106;75;671072;-78
2023/05/13 09:15:31;;;;;;;2.25;1.70;;;;;;;11.29;100.00;98043.66;1690463;75;1786053;-76
2023/05/13 09:18:05;;;;;;;1.60;1.50;;;;;;;11.42;100.00;98038.66;1697907;75;1822881;-76
2023/05/13 09:20:37;;;;;;;1.50;1.40;;;;;;;11.49;100.00;98037.53;1703389;75;677035;-74
2023/05/13 09:23:13;;;;;;;1.90;1.70;;;;;;;11.41;100.00;98039.13;1709553;75;835632;-74
2023/05/13 09:25:46;;;;;;;1.90;1.60;;;;;;;11.41;100.00;98044.63;1699551;75;896731;-77
2023/05/13 09:28:18;;;;;;;2.70;2.20;;;;;;;11.42;100.00;98035.91;1712122;75;668189;-74
2023/05/13 09:30:56;;;;;;;2.30;1.90;;;;;;;11.47;100.00;98046.25;1702871;75;739971;-74
2023/05/13 09:33:32;;;;;;;2.00;1.70;;;;;;;11.53;100.00;98043.59;1702584;75;751730;-73
2023/05/13 09:36:05;;;;;;;2.00;1.80;;;;;;;11.61;100.00;98043.97;1708225;75;951894;-75
2023/05/13 09:38:37;;;;;;;1.50;1.30;;;;;;;11.65;100.00;98044.53;1701490;75;854970;-74
2023/05/13 09:41:12;;;;;;;1.40;1.30;;;;;;;11.69;100.00;98048.59;1711342;75;680365;-74
2023/05/13 09:43:43;;;;;;;1.20;1.10;;;;;;;11.80;100.00;98041.78;1703401;75;680311;-74
2023/05/13 09:46:14;;;;;;;1.05;0.95;;;;;;;11.80;100.00;98039.78;1699125;75;1745419;-77
2023/05/13 09:48:46;;;;;;;1.00;1.00;;;;;;;11.85;100.00;98039.13;1703579;75;675166;-75
2023/05/13 09:51:18;;;;;;;0.90;0.90;;;;;;;11.96;100.00;98038.59;1711406;75;680682;-74
2023/05/13 09:53:50;;;;;;;1.10;0.95;;;;;;;11.94;100.00;98038.28;1702245;75;753785;-75
2023/05/13 09:56:25;;;;;;;0.80;0.80;;;;;;;12.09;100.00;98044.50;1710787;75;766022;-74
2023/05/13 09:58:56;;;;;;;1.00;0.90;;;;;;;11.99;100.00;98040.38;1702992;75;743817;-75
2023/05/13 10:01:27;;;;;;;1.00;0.90;;;;;;;12.11;100.00;98035.81;1711883;75;675926;-75
2023/05/13 10:03:58;;;;;;;0.80;0.80;;;;;;;12.10;100.00;98039.78;1701392;75;808435;-75
2023/05/13 10:06:32;;;;;;;0.80;0.80;;;;;;;12.10;100.00;98048.78;1709985;75;844740;-73
2023/05/13 10:09:05;;;;;;;0.95;0.90;;;;;;;12.16;100.00;98048.84;1703056;75;743606;-75
2023/05/13 10:11:39;;;;;;;0.70;0.70;;;;;;;12.14;100.00;98045.81;1711684;75;673730;-73
2023/05/13 10:14:10;;;;;;;1.15;1.00;;;;;;;11.80;100.00;98045.28;1702172;75;752908;-74
2023/05/13 10:16:40;;;;;;;1.00;1.00;;;;;;;11.99;100.00;98050.59;1708248;75;938013;-75
2023/05/13 10:19:11;;;;;;;1.55;1.00;;;;;;;11.83;100.00;98046.31;1702692;75;748424;-75
2023/05/13 10:21:43;;;;;;;1.60;1.30;;;;;;;11.62;100.00;98045.50;1699687;75;1686526;-73
2023/05/13 10:24:13;;;;;;;2.60;2.00;;;;;;;11.58;100.00;98045.66;1701391;75;815092;-75
2023/05/13 10:26:47;;;;;;;1.60;1.50;;;;;;;11.64;100.00;98052.00;1710169;75;835842;-78
2023/05/13 10:29:19;;;;;;;1.50;1.40;;;;;;;11.67;100.00;98042.09;1702052;75;758218;-74
2023/05/13 10:31:50;;;;;;;1.70;1.60;;;;;;;11.78;100.00;98053.22;1710457;75;776862;-75
2023/05/13 10:34:20;;;;;;;1.70;1.50;;;;;;;11.72;100.00;98055.88;1702628;75;752860;-73
2023/05/13 10:37:11;;;;;;;2.00;1.80;;;;;;;11.64;100.00;98053.97;1709330;75;875880;-75
2023/05/13 10:40:35;;;;;;;1.50;1.40;;;;;;;11.73;100.00;98053.88;1701617;75;768876;-73
2023/05/13 10:43:20;;;;;;;1.85;1.60;;;;;;;11.63;100.00;98053.22;1702742;75;746816;-75
2023/05/13 10:45:52;;;;;;;2.30;2.10;;;;;;;11.68;100.00;98057.28;1700872;75;871456;-75
2023/05/13 10:48:22;;;;;;;2.80;2.20;;;;;;;11.77;100.00;98059.94;1710571;75;769156;-77
2023/05/13 10:50:58;;;;;;;2.25;2.05;;;;;;;11.77;100.00;98059.94;1702270;75;808154;-79
2023/05/13 10:53:32;;;;;;;3.65;3.10;;;;;;;11.44;100.00;98063.63;1711228;75;675515;-74
2023/05/13 10:56:06;;;;;;;3.60;3.30;;;;;;;11.48;100.00;98061.44;1703761;75;676626;-75
2023/05/13 10:58:40;;;;;;;2.50;2.30;;;;;;;11.78;100.00;98047.72;1710849;75;677603;-74
2023/05/13 11:01:19;;;;;;;2.75;2.20;;;;;;;11.92;100.00;98052.47;1702793;75;745312;-74
2023/05/13 11:03:58;;;;;;;2.50;2.30;;;;;;;11.80;100.00;98056.25;1699729;75;979434;-74
2023/05/13 11:06:36;;;;;;;3.60;3.30;;;;;;;11.66;100.00;98062.50;1710839;75;680606;-74
2023/05/13 11:09:09;;;;;;;3.40;3.10;;;;;;;11.84;100.00;98056.81;1702273;75;784826;-74
2023/05/13 11:11:40;;;;;;;3.40;3.10;;;;;;;11.88;100.00;98053.91;1710357;75;710154;-74
2023/05/13 11:14:19;;;;;;;3.00;2.70;;;;;;;11.97;100.00;98058.53;1701959;75;741331;-75
2023/05/13 11:16:55;;;;;;;3.25;2.50;;;;;;;11.96;100.00;98051.53;1703142;75;684629;-78
2023/05/13 11:19:29;;;;;;;3.80;3.00;;;;;;;11.94;100.00;98058.25;1710492;75;676040;-74
2023/05/13 11:22:07;;;;;;;3.40;3.00;;;;;;;11.92;100.00;98066.19;1702865;75;672946;-75
2023/05/13 11:24:37;;;;;;;3.00;2.50;;;;;;;11.95;100.00;98067.22;1711064;75;673146;-72
2023/05/13 11:27:17;;;;;;;4.05;3.20;;;;;;;12.00;100.00;98055.59;1702658;75;680010;-77
2023/05/13 11:29:58;;;;;;;4.35;3.45;;;;;;;11.72;100.00;98064.09;1702284;75;675151;-73
2023/05/13 11:32:56;;;;;;;5.10;3.80;;;;;;;11.71;100.00;98057.13;1711063;75;674009;-73
2023/05/13 11:35:28;;;;;;;3.90;3.40;;;;;;;11.88;100.00;98057.41;1701634;75;750354;-74
2023/05/13 11:37:59;;;;;;;4.65;3.35;;;;;;;11.75;100.00;98067.13;1710919;75;675347;-73
2023/05/13 11:40:32;;;;;;;4.40;3.60;;;;;;;11.76;100.00;98069.41;1701958;75;741214;-73